Observations for BRIZE NORTON RA, United Kingdom (EGVN)

EGVN 242038Z 26008KT 7000 -RADZ FEW004 SCT009 BKN015 12/11 Q1007 GRN BECMG 9999NSW BKN018 WHT
EGVN 241950Z 22009KT 4000 -RADZ SCT008 SCT012 BKN018 12/11 Q1007 GRN BECMG 9999 NSW BKN018 WHT  
EGVN 241950Z 22009KT 4000 -RADZ SCT008 SCT012 BKN018 12/11 Q1007 BECMG 9999 NSWBKN018
EGVN 241850Z 23007KT 9999 -RADZ SCT012 BKN020 13/11 Q1007 GRN BECMG FEW012 BKN020 WHT   
EGVN 241850Z 23007KT 9999 -RADZ SCT012 BKN020 13/11 Q1007 BECMG FEW012 BKN020
EGVN 241818Z 22010KT 4000 -RADZ SCT013 BKN020 13/11 Q1007 GRN TEMPO 9999 NSW GRN
EGVN 241818Z 22010KT 4000 -RADZ SCT013 BKN020 13/11 Q1007 GRN TEMPO 999 NSW GRN
EGVN 241750Z 22010KT 9999 SCT012 SCT040 13/11 Q1007 GRN TEMPO 4000 RA GRN   
EGVN 241750Z 22010KT 9999 SCT012 SCT040 13/11 Q1007 TEMPO 4000 RA
EGVN 241716Z 24008KT 9999 -RA SCT008 BKN010 13/12 Q1008 GRN TEMPO 4000 RA GRN
EGVN 241650Z 23009KT 4000 RA SCT009 BKN010 13/12 Q1008 GRN BECMG 9999 NSW GRN   
EGVN 241650Z 23009KT 4000 RA SCT009 BKN010 13/12 Q1008 BECMG 9999 NSW
EGVN 241550Z 22011KT 9999 FEW010 BKN012 14/11 Q1009 GRN TEMPO SCT015 WHT
EGVN 241550Z 22011KT 9999 FEW010 BKN012 14/11 Q1009 TEMPO SCT015
EGVN 241450Z 22011G22KT 9999 BKN011 13/11 Q1010 GRN TEMPO BKN015 WHT
EGVN 241450Z 22011G22KT 9999 BKN011 13/11 Q1010 TEMPO BKN015
EGVN 241335Z 21007KT 6000 HZ BKN013 SCT022 13/11 Q1011 BECMG 9999 NSW   
EGVN 241335Z 21007KT 6000 HZ BKN013 SCT022 13/11 Q1011 GRN BECMG 9999 NSW GRN
EGVN 241307Z 21009KT 5000 -RADZ FEW015 OVC022 13/10 Q1012 WHT BECMG BKN015 WHT
EGVN 241315Z 21007KT 4000 -RADZ SCT017 BKN034 13/10 Q1012 GRN NOSIG
EGVN 241250Z 20010G21KT 8000 -DZ FEW015 SCT032 BKN045 14/08 Q1012 BLU BECMG SCT020 WHT  
EGVN 241250Z 20010G21KT 8000 -DZ FEW015 SCT032 BKN045 14/08 Q1012 BECMG SCT020
EGVN 241150Z 22007KT 9999 FEW020 BKN050 13/08 Q1013 BLU BECMG SCT020 WHT
EGVN 241150Z 22007KT 9999 FEW020 BKN050 13/08 Q1013 BECMG SCT020
EGVN 241050Z 22006KT 9999 FEW012 BKN053 12/08 Q1014 BLU NOSIG   
EGVN 241050Z 22006KT 9999 FEW012 BKN053 12/08 Q1014 NOSIG
EGVN 240950Z 24004KT 9999 FEW012 BKN058 11/08 Q1014 NOSIG   
EGVN 240950Z 24004KT 9999 FEW012 BKN058 11/08 Q1014 BLU NOSIG
EGVN 240850Z 26006KT 9999 FEW030 OVC060 11/08 Q1015 TEMPO SCT012
EGVN 240850Z 26006KT 9999 FEW030 OVC060 11/08 Q1015 BLU TEMPO SCT012 GRN
EGVN 240750Z 26007KT 9999 -RA FEW009 OVC070 10/08 Q1015 BLU TEMPO SCT009 GRN
EGVN 240750Z 26007KT 9999 -RA FEW009 OVC070 10/08 Q1015 TEMPO SCT009
EGVN 240650Z 25006KT 9999 FEW009 BKN090 10/08 Q1015 NOSIG   
EGVN 240650Z 25006KT 9999 FEW009 BKN090 10/08 Q1015 BLU NOSIG
EGVN 240550Z 27007KT 9999 FEW009 SCT120 BKN160 10/08 Q1015 BLU NOSIG
EGVN 240550Z 27007KT 9999 FEW009 SCT120 BKN160 10/08 Q1015 NOSIG
EGVN 240450Z 24005KT 9999 FEW010 BKN120 10/08 Q1014 BLU NOSIG   
EGVN 240450Z 24005KT 9999 FEW010 BKN120 10/08 Q1014 NOSIG
EGVN 240350Z 25007KT 9999 FEW010 BKN160 10/09 Q1014 NOSIG   
EGVN 240350Z 25007KT 9999 FEW010 BKN160 10/09 Q1014 BLU NOSIG
EGVN 240318Z 26007KT 9999 FEW012 BKN180 11/08 Q1014 BLU BECMG BKN012 GRN
EGVN 240250Z 26007KT 9999 BKN020 11/09 Q1014 NOSIG  
EGVN 240250Z 26007KT 9999 BKN020 11/09 Q1014 WHT NOSIG
EGVN 240150Z 26008KT 9999 SCT012 BKN018 11/09 Q1014 NOSIG   
EGVN 240150Z 26008KT 9999 SCT012 BKN018 11/09 Q1014 GRN NOSIG
EGVN 240125Z 25009KT 9999 FEW012 SCT018 11/08 Q1014 WHT TEMPO FEW018 BLU
EGVN 240050Z 25007KT 9999 -DZ FEW005 SCT012 BKN018 11/10 Q1014 GRN TEMPO FEW012 WHT 
EGVN 240050Z 25007KT 9999 -DZ FEW005 SCT012 BKN018 11/10 Q1014 TEMPO FEW012
EGVN 232350Z 25008KT 5000 -DZ FEW005 BKN008 11/10 Q1014 GRN BECMG 9999 NSW GRN  
EGVN 232350Z 25008KT 5000 -DZ FEW005 BKN008 11/10 Q1014 BECMG 9999 NSW
EGVN 232250Z 25008KT 9999 BKN008 11/09 Q1015 TEMPO FEW008 BKN030
EGVN 232250Z 25008KT 9999 BKN008 11/09 Q1015 GRN TEMPO FEW008 BKN030 BLU
EGVN 232150Z 25007KT 9999 FEW014 BKN018 11/07 Q1015 BECMG BKN012
EGVN 232150Z 25007KT 9999 FEW014 BKN018 11/07 Q1015 WHT BECMG BKN012 GRN
EGVN 232050Z 24006KT 9999 BKN022 11/07 Q1015 WHT NOSIG  
EGVN 232050Z 24006KT 9999 BKN022 11/07 Q1015 NOSIG
EGVN 231950Z 25006KT 9999 BKN026 11/06 Q1015 BLU BECMG BKN020 WHT   
EGVN 231950Z 25006KT 9999 BKN026 11/06 Q1015 BECMG BKN020